Pompano Beach, FL

1:32 AM EST on December 06, 2016 (GMT -0500)
Cypress Lake Estates 908 Club | | Change Station

Elev 10 ft 26.22 °N, 80.11 °W | Updated 60 seconds ago

Scattered Clouds
Scattered Clouds
78.6 °F
Feels Like 82 °F
N
5.0
Wind Variable Wind from South
Gusts 9.0 mph

Today
High -- | Low -- °F
--% Chance of Precip.
Yesterday
High -- | Low -- °F
Precip. -- in
Pressure 29.95 in
Visibility 8.0 miles
Clouds Few 1800 ft
Few 2600 ft
Scattered Clouds 3400 ft
Heat Index 82 °F
Dew Point 74 °F
Humidity 85%
Rainfall 0.00 in
Snow Depth Not available.
6:54 AM 5:28 PM
Waxing Crescent, 38% visible
METAR KPMP 060553Z AUTO 16012KT 8SM FEW018 FEW026 SCT034 26/23 A2995 RMK AO2 SLP142 T02560228 10261 20256 58005
Pressure 29.95 in
Visibility 8.0 miles
Clouds Few 1800 ft
Few 2600 ft
Scattered Clouds 3400 ft
Heat Index 82 °F
Dew Point 74 °F
Humidity 85%
Rainfall 0.00 in
Snow Depth Not available.
6:54 AM 5:28 PM
Waxing Crescent, 38% visible
METAR KPMP 060553Z AUTO 16012KT 8SM FEW018 FEW026 SCT034 26/23 A2995 RMK AO2 SLP142 T02560228 10261 20256 58005

10-Day Weather Forecast

Almanac

Astronomy

Dec. 06, 2016 Rise Set
Actual Time
Civil Twilight
Nautical Twilight
Astronomical Twilight
Moon
Length of Visible Light
Length of Day
Tomorrow will be .
, % of the Moon is Illuminated

Today's Extremes

State Highs State Lows

Community

WunderPhotos

Upload Photos

1,955,931 photos uploaded!

WunderBlog® & News

Nearby

Air Quality

  Air Quality AQ Index Pollutant
Not available.

Snow Depth

Station Depth Elevation

Earthquake Activity

City Distance Mag. Time & Date
Minimum magnitude displayed is 2.5.

Coastal Water Temperatures

Place Temperature

Stations

Nearby Weather Stations

Station Location Temp. Windchill Dew Point Humidity Wind Precip. Elev Updated Type
                   

Watches & Warnings

There are currently no watches in effect.